sensor_id;sensor_type;location;lat;lon;timestamp;P1;durP1;ratioP1;P2;durP2;ratioP2
21615;SDS011;10970;48.714;9.584;2023-02-14T00:01:42;35.15;;;20.20;;
21615;SDS011;10970;48.714;9.584;2023-02-14T00:04:08;30.30;;;18.17;;
21615;SDS011;10970;48.714;9.584;2023-02-14T00:06:33;30.27;;;16.23;;
21615;SDS011;10970;48.714;9.584;2023-02-14T00:09:03;32.63;;;17.45;;
21615;SDS011;10970;48.714;9.584;2023-02-14T00:11:29;28.80;;;16.02;;
21615;SDS011;10970;48.714;9.584;2023-02-14T00:13:55;31.87;;;15.60;;
21615;SDS011;10970;48.714;9.584;2023-02-14T00:16:40;25.60;;;16.15;;
21615;SDS011;10970;48.714;9.584;2023-02-14T00:19:06;32.55;;;17.40;;
21615;SDS011;10970;48.714;9.584;2023-02-14T00:21:34;37.20;;;17.98;;
21615;SDS011;10970;48.714;9.584;2023-02-14T00:24:01;25.67;;;15.30;;
21615;SDS011;10970;48.714;9.584;2023-02-14T00:26:32;35.78;;;18.40;;
21615;SDS011;10970;48.714;9.584;2023-02-14T00:28:57;28.07;;;17.60;;
21615;SDS011;10970;48.714;9.584;2023-02-14T00:31:23;28.47;;;16.97;;
21615;SDS011;10970;48.714;9.584;2023-02-14T00:33:49;39.30;;;20.20;;
21615;SDS011;10970;48.714;9.584;2023-02-14T00:36:14;30.83;;;17.23;;
21615;SDS011;10970;48.714;9.584;2023-02-14T00:38:43;34.33;;;18.65;;
21615;SDS011;10970;48.714;9.584;2023-02-14T00:41:09;36.10;;;17.93;;
21615;SDS011;10970;48.714;9.584;2023-02-14T00:43:43;27.27;;;16.60;;
21615;SDS011;10970;48.714;9.584;2023-02-14T00:46:10;32.90;;;18.00;;
21615;SDS011;10970;48.714;9.584;2023-02-14T00:48:35;30.57;;;19.40;;
21615;SDS011;10970;48.714;9.584;2023-02-14T00:51:01;31.67;;;16.53;;
21615;SDS011;10970;48.714;9.584;2023-02-14T00:53:27;27.30;;;16.53;;
21615;SDS011;10970;48.714;9.584;2023-02-14T00:55:52;31.70;;;17.87;;
21615;SDS011;10970;48.714;9.584;2023-02-14T00:58:18;31.10;;;17.60;;
21615;SDS011;10970;48.714;9.584;2023-02-14T01:00:43;31.03;;;17.93;;
21615;SDS011;10970;48.714;9.584;2023-02-14T01:03:09;29.07;;;17.60;;
21615;SDS011;10970;48.714;9.584;2023-02-14T01:05:35;30.97;;;17.27;;
21615;SDS011;10970;48.714;9.584;2023-02-14T01:08:00;35.37;;;17.93;;
21615;SDS011;10970;48.714;9.584;2023-02-14T01:10:26;28.97;;;18.30;;
21615;SDS011;10970;48.714;9.584;2023-02-14T01:12:51;29.80;;;18.97;;
21615;SDS011;10970;48.714;9.584;2023-02-14T01:15:17;45.03;;;19.50;;
21615;SDS011;10970;48.714;9.584;2023-02-14T01:17:43;34.40;;;17.90;;
21615;SDS011;10970;48.714;9.584;2023-02-14T01:20:09;35.00;;;19.57;;
21615;SDS011;10970;48.714;9.584;2023-02-14T01:22:35;32.22;;;17.58;;
21615;SDS011;10970;48.714;9.584;2023-02-14T01:25:01;35.53;;;17.75;;
21615;SDS011;10970;48.714;9.584;2023-02-14T01:27:27;39.45;;;19.25;;
21615;SDS011;10970;48.714;9.584;2023-02-14T01:29:53;32.23;;;16.73;;
21615;SDS011;10970;48.714;9.584;2023-02-14T01:32:19;34.83;;;19.23;;
21615;SDS011;10970;48.714;9.584;2023-02-14T01:34:45;34.45;;;19.75;;
21615;SDS011;10970;48.714;9.584;2023-02-14T01:37:12;36.88;;;19.27;;
21615;SDS011;10970;48.714;9.584;2023-02-14T01:39:38;29.48;;;17.02;;
21615;SDS011;10970;48.714;9.584;2023-02-14T01:42:04;39.90;;;19.38;;
21615;SDS011;10970;48.714;9.584;2023-02-14T01:46:55;38.83;;;18.83;;
21615;SDS011;10970;48.714;9.584;2023-02-14T01:52:07;42.33;;;17.13;;
21615;SDS011;10970;48.714;9.584;2023-02-14T01:55:01;37.53;;;20.88;;
21615;SDS011;10970;48.714;9.584;2023-02-14T01:57:38;35.03;;;18.58;;
21615;SDS011;10970;48.714;9.584;2023-02-14T02:00:08;32.55;;;18.38;;
21615;SDS011;10970;48.714;9.584;2023-02-14T02:02:53;39.13;;;17.58;;
21615;SDS011;10970;48.714;9.584;2023-02-14T02:05:20;32.92;;;18.05;;
21615;SDS011;10970;48.714;9.584;2023-02-14T02:07:48;37.17;;;20.13;;
21615;SDS011;10970;48.714;9.584;2023-02-14T02:10:19;28.02;;;16.90;;
21615;SDS011;10970;48.714;9.584;2023-02-14T02:12:44;34.07;;;17.83;;
21615;SDS011;10970;48.714;9.584;2023-02-14T02:15:11;31.50;;;18.20;;
21615;SDS011;10970;48.714;9.584;2023-02-14T02:23:25;29.70;;;17.23;;
21615;SDS011;10970;48.714;9.584;2023-02-14T02:45:27;28.35;;;16.30;;
21615;SDS011;10970;48.714;9.584;2023-02-14T02:48:04;34.75;;;16.27;;
21615;SDS011;10970;48.714;9.584;2023-02-14T02:50:45;26.45;;;16.60;;
21615;SDS011;10970;48.714;9.584;2023-02-14T02:56:10;31.38;;;15.70;;
21615;SDS011;10970;48.714;9.584;2023-02-14T02:59:05;30.98;;;16.42;;
21615;SDS011;10970;48.714;9.584;2023-02-14T03:01:42;27.95;;;16.38;;
21615;SDS011;10970;48.714;9.584;2023-02-14T03:04:12;30.00;;;15.15;;
21615;SDS011;10970;48.714;9.584;2023-02-14T03:06:57;25.50;;;16.27;;
21615;SDS011;10970;48.714;9.584;2023-02-14T03:11:54;25.97;;;16.60;;
21615;SDS011;10970;48.714;9.584;2023-02-14T03:26:01;29.77;;;17.33;;
21615;SDS011;10970;48.714;9.584;2023-02-14T03:36:36;27.52;;;18.05;;
21615;SDS011;10970;48.714;9.584;2023-02-14T03:39:26;33.05;;;17.50;;
21615;SDS011;10970;48.714;9.584;2023-02-14T03:41:59;24.25;;;14.80;;
21615;SDS011;10970;48.714;9.584;2023-02-14T03:44:31;26.95;;;16.58;;
21615;SDS011;10970;48.714;9.584;2023-02-14T03:47:10;25.65;;;14.70;;
21615;SDS011;10970;48.714;9.584;2023-02-14T03:49:39;28.35;;;18.17;;
21615;SDS011;10970;48.714;9.584;2023-02-14T03:52:08;29.60;;;17.33;;
21615;SDS011;10970;48.714;9.584;2023-02-14T03:54:36;24.45;;;15.20;;
21615;SDS011;10970;48.714;9.584;2023-02-14T03:57:07;29.33;;;15.52;;
21615;SDS011;10970;48.714;9.584;2023-02-14T03:59:43;27.05;;;15.20;;
21615;SDS011;10970;48.714;9.584;2023-02-14T04:02:14;26.25;;;16.02;;
21615;SDS011;10970;48.714;9.584;2023-02-14T04:04:48;30.70;;;14.82;;
21615;SDS011;10970;48.714;9.584;2023-02-14T04:07:19;23.88;;;15.20;;
21615;SDS011;10970;48.714;9.584;2023-02-14T04:09:46;25.33;;;15.82;;
21615;SDS011;10970;48.714;9.584;2023-02-14T04:12:13;21.55;;;13.75;;
21615;SDS011;10970;48.714;9.584;2023-02-14T04:14:40;25.08;;;16.70;;
21615;SDS011;10970;48.714;9.584;2023-02-14T04:17:05;26.10;;;15.90;;
21615;SDS011;10970;48.714;9.584;2023-02-14T04:19:50;29.75;;;17.50;;
21615;SDS011;10970;48.714;9.584;2023-02-14T04:22:16;35.53;;;19.37;;
21615;SDS011;10970;48.714;9.584;2023-02-14T04:24:42;31.93;;;16.50;;
21615;SDS011;10970;48.714;9.584;2023-02-14T04:27:07;20.67;;;15.07;;
21615;SDS011;10970;48.714;9.584;2023-02-14T04:32:08;32.22;;;16.80;;
21615;SDS011;10970;48.714;9.584;2023-02-14T04:34:36;33.63;;;17.63;;
21615;SDS011;10970;48.714;9.584;2023-02-14T04:37:02;35.92;;;18.98;;
21615;SDS011;10970;48.714;9.584;2023-02-14T04:39:29;33.60;;;16.02;;
21615;SDS011;10970;48.714;9.584;2023-02-14T04:41:54;36.40;;;18.87;;
21615;SDS011;10970;48.714;9.584;2023-02-14T04:44:20;37.17;;;20.88;;
21615;SDS011;10970;48.714;9.584;2023-02-14T04:46:46;28.70;;;18.23;;
21615;SDS011;10970;48.714;9.584;2023-02-14T04:49:12;28.70;;;17.20;;
21615;SDS011;10970;48.714;9.584;2023-02-14T04:51:37;38.20;;;18.10;;
21615;SDS011;10970;48.714;9.584;2023-02-14T04:54:03;33.47;;;17.23;;
21615;SDS011;10970;48.714;9.584;2023-02-14T04:56:29;32.97;;;19.70;;
21615;SDS011;10970;48.714;9.584;2023-02-14T04:58:54;33.23;;;16.30;;
21615;SDS011;10970;48.714;9.584;2023-02-14T05:01:20;26.77;;;16.03;;
21615;SDS011;10970;48.714;9.584;2023-02-14T05:03:46;27.80;;;16.67;;
21615;SDS011;10970;48.714;9.584;2023-02-14T05:06:11;28.13;;;17.40;;
21615;SDS011;10970;48.714;9.584;2023-02-14T05:08:37;31.17;;;17.90;;
21615;SDS011;10970;48.714;9.584;2023-02-14T05:11:02;31.07;;;18.10;;
21615;SDS011;10970;48.714;9.584;2023-02-14T05:13:28;31.67;;;17.60;;
21615;SDS011;10970;48.714;9.584;2023-02-14T05:15:55;30.35;;;18.98;;
21615;SDS011;10970;48.714;9.584;2023-02-14T05:18:22;35.38;;;18.58;;
21615;SDS011;10970;48.714;9.584;2023-02-14T05:20:51;29.40;;;16.60;;
21615;SDS011;10970;48.714;9.584;2023-02-14T05:23:18;31.67;;;17.20;;
21615;SDS011;10970;48.714;9.584;2023-02-14T05:25:43;29.57;;;18.70;;
21615;SDS011;10970;48.714;9.584;2023-02-14T05:28:11;25.30;;;17.65;;
21615;SDS011;10970;48.714;9.584;2023-02-14T05:30:37;33.30;;;20.30;;
21615;SDS011;10970;48.714;9.584;2023-02-14T05:33:02;39.97;;;18.77;;
21615;SDS011;10970;48.714;9.584;2023-02-14T05:35:28;31.87;;;16.47;;
21615;SDS011;10970;48.714;9.584;2023-02-14T05:37:55;35.25;;;18.98;;
21615;SDS011;10970;48.714;9.584;2023-02-14T05:40:21;32.87;;;17.40;;
21615;SDS011;10970;48.714;9.584;2023-02-14T05:42:47;30.10;;;16.70;;
21615;SDS011;10970;48.714;9.584;2023-02-14T05:45:12;36.40;;;18.23;;
21615;SDS011;10970;48.714;9.584;2023-02-14T05:47:38;39.00;;;17.90;;
21615;SDS011;10970;48.714;9.584;2023-02-14T05:50:05;29.10;;;16.97;;
21615;SDS011;10970;48.714;9.584;2023-02-14T05:52:31;32.33;;;18.00;;
21615;SDS011;10970;48.714;9.584;2023-02-14T05:54:57;30.73;;;18.33;;
21615;SDS011;10970;48.714;9.584;2023-02-14T05:57:23;28.00;;;17.47;;
21615;SDS011;10970;48.714;9.584;2023-02-14T05:59:49;32.20;;;18.42;;
21615;SDS011;10970;48.714;9.584;2023-02-14T06:02:15;26.73;;;17.10;;
21615;SDS011;10970;48.714;9.584;2023-02-14T06:04:41;33.27;;;19.37;;
21615;SDS011;10970;48.714;9.584;2023-02-14T06:07:06;30.70;;;17.33;;
21615;SDS011;10970;48.714;9.584;2023-02-14T06:09:32;26.43;;;16.90;;
21615;SDS011;10970;48.714;9.584;2023-02-14T06:11:58;31.77;;;18.40;;
21615;SDS011;10970;48.714;9.584;2023-02-14T06:14:24;28.33;;;16.97;;
21615;SDS011;10970;48.714;9.584;2023-02-14T06:16:50;32.78;;;18.38;;
21615;SDS011;10970;48.714;9.584;2023-02-14T06:19:15;25.93;;;15.23;;
21615;SDS011;10970;48.714;9.584;2023-02-14T06:21:41;25.03;;;15.53;;
21615;SDS011;10970;48.714;9.584;2023-02-14T06:24:07;36.07;;;18.00;;
21615;SDS011;10970;48.714;9.584;2023-02-14T06:26:32;28.60;;;18.40;;
21615;SDS011;10970;48.714;9.584;2023-02-14T06:29:00;32.15;;;20.13;;
21615;SDS011;10970;48.714;9.584;2023-02-14T06:31:26;26.02;;;16.08;;
21615;SDS011;10970;48.714;9.584;2023-02-14T06:33:52;35.53;;;17.57;;
21615;SDS011;10970;48.714;9.584;2023-02-14T06:36:18;29.55;;;16.58;;
21615;SDS011;10970;48.714;9.584;2023-02-14T06:38:45;25.52;;;16.23;;
21615;SDS011;10970;48.714;9.584;2023-02-14T06:41:12;34.95;;;18.92;;
21615;SDS011;10970;48.714;9.584;2023-02-14T06:43:44;27.10;;;16.95;;
21615;SDS011;10970;48.714;9.584;2023-02-14T06:46:14;37.00;;;17.52;;
21615;SDS011;10970;48.714;9.584;2023-02-14T06:48:41;31.77;;;17.13;;
21615;SDS011;10970;48.714;9.584;2023-02-14T06:51:07;27.00;;;15.43;;
21615;SDS011;10970;48.714;9.584;2023-02-14T06:53:32;31.93;;;16.47;;
21615;SDS011;10970;48.714;9.584;2023-02-14T06:55:58;30.10;;;17.77;;
21615;SDS011;10970;48.714;9.584;2023-02-14T06:58:24;28.80;;;16.63;;
21615;SDS011;10970;48.714;9.584;2023-02-14T07:00:49;32.17;;;17.57;;
21615;SDS011;10970;48.714;9.584;2023-02-14T07:03:15;26.77;;;16.97;;
21615;SDS011;10970;48.714;9.584;2023-02-14T07:05:41;29.37;;;16.57;;
21615;SDS011;10970;48.714;9.584;2023-02-14T07:08:09;28.63;;;16.05;;
21615;SDS011;10970;48.714;9.584;2023-02-14T07:10:34;25.00;;;13.53;;
21615;SDS011;10970;48.714;9.584;2023-02-14T07:13:00;28.27;;;15.20;;
21615;SDS011;10970;48.714;9.584;2023-02-14T07:15:26;30.03;;;17.60;;
21615;SDS011;10970;48.714;9.584;2023-02-14T07:17:52;28.53;;;15.50;;
21615;SDS011;10970;48.714;9.584;2023-02-14T07:20:17;30.37;;;16.50;;
21615;SDS011;10970;48.714;9.584;2023-02-14T07:22:43;27.90;;;16.48;;
21615;SDS011;10970;48.714;9.584;2023-02-14T07:25:10;30.63;;;17.00;;
21615;SDS011;10970;48.714;9.584;2023-02-14T07:27:36;36.72;;;19.00;;
21615;SDS011;10970;48.714;9.584;2023-02-14T07:30:03;28.98;;;16.58;;
21615;SDS011;10970;48.714;9.584;2023-02-14T07:32:30;28.10;;;16.92;;
21615;SDS011;10970;48.714;9.584;2023-02-14T07:34:56;26.17;;;15.90;;
21615;SDS011;10970;48.714;9.584;2023-02-14T07:37:21;28.63;;;17.63;;
21615;SDS011;10970;48.714;9.584;2023-02-14T07:39:47;28.17;;;16.50;;
21615;SDS011;10970;48.714;9.584;2023-02-14T07:42:13;20.90;;;13.90;;
21615;SDS011;10970;48.714;9.584;2023-02-14T07:44:38;24.17;;;16.50;;
21615;SDS011;10970;48.714;9.584;2023-02-14T07:47:05;22.77;;;15.27;;
21615;SDS011;10970;48.714;9.584;2023-02-14T07:49:31;35.38;;;18.45;;
21615;SDS011;10970;48.714;9.584;2023-02-14T07:51:56;24.33;;;16.20;;
21615;SDS011;10970;48.714;9.584;2023-02-14T07:54:22;33.67;;;18.90;;
21615;SDS011;10970;48.714;9.584;2023-02-14T07:56:48;29.40;;;16.90;;
21615;SDS011;10970;48.714;9.584;2023-02-14T07:59:14;22.67;;;15.30;;
21615;SDS011;10970;48.714;9.584;2023-02-14T08:01:39;29.53;;;19.03;;
21615;SDS011;10970;48.714;9.584;2023-02-14T08:04:05;36.27;;;20.97;;
21615;SDS011;10970;48.714;9.584;2023-02-14T08:06:31;32.00;;;20.17;;
21615;SDS011;10970;48.714;9.584;2023-02-14T08:08:56;42.27;;;20.97;;
21615;SDS011;10970;48.714;9.584;2023-02-14T08:11:22;35.27;;;20.70;;
21615;SDS011;10970;48.714;9.584;2023-02-14T08:14:06;26.73;;;17.75;;
21615;SDS011;10970;48.714;9.584;2023-02-14T08:16:32;36.10;;;21.27;;
21615;SDS011;10970;48.714;9.584;2023-02-14T08:18:58;30.33;;;18.80;;
21615;SDS011;10970;48.714;9.584;2023-02-14T08:21:25;30.45;;;17.40;;
21615;SDS011;10970;48.714;9.584;2023-02-14T08:23:51;28.38;;;14.88;;
21615;SDS011;10970;48.714;9.584;2023-02-14T08:26:17;34.83;;;17.47;;
21615;SDS011;10970;48.714;9.584;2023-02-14T08:28:42;24.67;;;16.23;;
21615;SDS011;10970;48.714;9.584;2023-02-14T08:31:08;23.75;;;15.50;;
21615;SDS011;10970;48.714;9.584;2023-02-14T08:33:35;31.35;;;16.73;;
21615;SDS011;10970;48.714;9.584;2023-02-14T08:36:01;33.13;;;17.40;;
21615;SDS011;10970;48.714;9.584;2023-02-14T08:38:27;25.55;;;16.40;;
21615;SDS011;10970;48.714;9.584;2023-02-14T08:40:53;27.90;;;18.63;;
21615;SDS011;10970;48.714;9.584;2023-02-14T08:43:19;35.20;;;17.58;;
21615;SDS011;10970;48.714;9.584;2023-02-14T08:45:44;26.63;;;17.80;;
21615;SDS011;10970;48.714;9.584;2023-02-14T08:48:11;27.60;;;16.13;;
21615;SDS011;10970;48.714;9.584;2023-02-14T08:50:37;25.77;;;16.67;;
21615;SDS011;10970;48.714;9.584;2023-02-14T08:53:07;28.17;;;15.50;;
21615;SDS011;10970;48.714;9.584;2023-02-14T08:55:33;25.23;;;17.10;;
21615;SDS011;10970;48.714;9.584;2023-02-14T08:57:59;27.00;;;18.30;;
21615;SDS011;10970;48.714;9.584;2023-02-14T09:00:25;25.60;;;16.27;;
21615;SDS011;10970;48.714;9.584;2023-02-14T09:02:51;30.33;;;17.25;;
21615;SDS011;10970;48.714;9.584;2023-02-14T09:05:18;27.50;;;19.75;;
21615;SDS011;10970;48.714;9.584;2023-02-14T09:07:47;21.52;;;15.38;;
21615;SDS011;10970;48.714;9.584;2023-02-14T09:10:13;27.70;;;17.47;;
21615;SDS011;10970;48.714;9.584;2023-02-14T09:12:39;31.23;;;17.83;;
21615;SDS011;10970;48.714;9.584;2023-02-14T09:15:06;27.33;;;17.65;;
21615;SDS011;10970;48.714;9.584;2023-02-14T09:17:32;26.92;;;17.90;;
21615;SDS011;10970;48.714;9.584;2023-02-14T09:19:58;22.90;;;15.33;;
21615;SDS011;10970;48.714;9.584;2023-02-14T09:22:23;26.43;;;15.63;;
21615;SDS011;10970;48.714;9.584;2023-02-14T09:24:49;23.30;;;15.50;;
21615;SDS011;10970;48.714;9.584;2023-02-14T09:27:15;23.53;;;16.20;;
21615;SDS011;10970;48.714;9.584;2023-02-14T09:29:40;23.80;;;17.10;;
21615;SDS011;10970;48.714;9.584;2023-02-14T09:32:06;27.17;;;15.33;;
21615;SDS011;10970;48.714;9.584;2023-02-14T09:34:32;22.93;;;14.77;;
21615;SDS011;10970;48.714;9.584;2023-02-14T09:37:11;24.88;;;15.48;;
21615;SDS011;10970;48.714;9.584;2023-02-14T09:39:56;24.95;;;16.10;;
21615;SDS011;10970;48.714;9.584;2023-02-14T09:42:44;25.25;;;17.15;;
21615;SDS011;10970;48.714;9.584;2023-02-14T09:45:23;22.67;;;15.52;;
21615;SDS011;10970;48.714;9.584;2023-02-14T09:47:54;25.80;;;16.45;;
21615;SDS011;10970;48.714;9.584;2023-02-14T09:50:26;23.45;;;16.80;;
21615;SDS011;10970;48.714;9.584;2023-02-14T09:53:12;25.40;;;16.63;;
21615;SDS011;10970;48.714;9.584;2023-02-14T10:03:49;24.50;;;14.65;;
21615;SDS011;10970;48.714;9.584;2023-02-14T10:09:21;24.27;;;14.90;;
21615;SDS011;10970;48.714;9.584;2023-02-14T10:12:03;16.30;;;12.55;;
21615;SDS011;10970;48.714;9.584;2023-02-14T10:14:33;19.88;;;14.63;;
21615;SDS011;10970;48.714;9.584;2023-02-14T10:17:06;25.15;;;15.40;;
21615;SDS011;10970;48.714;9.584;2023-02-14T10:19:38;24.65;;;13.48;;
21615;SDS011;10970;48.714;9.584;2023-02-14T10:22:13;19.33;;;13.80;;
21615;SDS011;10970;48.714;9.584;2023-02-14T10:27:32;21.63;;;14.57;;
21615;SDS011;10970;48.714;9.584;2023-02-14T10:30:00;22.60;;;14.82;;
21615;SDS011;10970;48.714;9.584;2023-02-14T10:32:42;16.92;;;13.63;;
21615;SDS011;10970;48.714;9.584;2023-02-14T10:38:00;20.45;;;13.15;;
21615;SDS011;10970;48.714;9.584;2023-02-14T10:43:32;20.02;;;13.82;;
21615;SDS011;10970;48.714;9.584;2023-02-14T10:51:20;19.30;;;13.82;;
21615;SDS011;10970;48.714;9.584;2023-02-14T10:57:25;16.63;;;12.40;;
21615;SDS011;10970;48.714;9.584;2023-02-14T10:59:53;20.20;;;14.18;;
21615;SDS011;10970;48.714;9.584;2023-02-14T11:02:35;16.83;;;13.32;;
21615;SDS011;10970;48.714;9.584;2023-02-14T11:05:06;19.38;;;13.95;;
21615;SDS011;10970;48.714;9.584;2023-02-14T11:07:43;18.17;;;12.73;;
21615;SDS011;10970;48.714;9.584;2023-02-14T11:10:10;26.00;;;14.18;;
21615;SDS011;10970;48.714;9.584;2023-02-14T11:12:38;15.93;;;10.82;;
21615;SDS011;10970;48.714;9.584;2023-02-14T11:15:09;13.95;;;10.93;;
21615;SDS011;10970;48.714;9.584;2023-02-14T11:17:38;15.95;;;10.52;;
21615;SDS011;10970;48.714;9.584;2023-02-14T11:20:24;15.47;;;11.70;;
21615;SDS011;10970;48.714;9.584;2023-02-14T11:22:54;18.55;;;12.65;;
21615;SDS011;10970;48.714;9.584;2023-02-14T11:25:21;16.23;;;11.30;;
21615;SDS011;10970;48.714;9.584;2023-02-14T11:27:48;19.50;;;11.50;;
21615;SDS011;10970;48.714;9.584;2023-02-14T11:30:26;19.08;;;12.65;;
21615;SDS011;10970;48.714;9.584;2023-02-14T11:32:55;20.35;;;13.38;;
21615;SDS011;10970;48.714;9.584;2023-02-14T11:35:22;14.53;;;12.10;;
21615;SDS011;10970;48.714;9.584;2023-02-14T11:37:51;15.80;;;11.75;;
21615;SDS011;10970;48.714;9.584;2023-02-14T11:42:50;18.85;;;12.70;;
21615;SDS011;10970;48.714;9.584;2023-02-14T11:45:32;17.90;;;12.30;;
21615;SDS011;10970;48.714;9.584;2023-02-14T11:48:42;17.20;;;11.48;;
21615;SDS011;10970;48.714;9.584;2023-02-14T11:51:11;22.42;;;12.05;;
21615;SDS011;10970;48.714;9.584;2023-02-14T11:56:10;15.93;;;12.35;;
21615;SDS011;10970;48.714;9.584;2023-02-14T11:58:38;16.05;;;11.50;;
21615;SDS011;10970;48.714;9.584;2023-02-14T12:01:09;25.52;;;11.43;;
21615;SDS011;10970;48.714;9.584;2023-02-14T12:03:38;18.98;;;12.45;;
21615;SDS011;10970;48.714;9.584;2023-02-14T12:06:10;15.45;;;10.85;;
21615;SDS011;10970;48.714;9.584;2023-02-14T12:08:37;16.50;;;10.50;;
21615;SDS011;10970;48.714;9.584;2023-02-14T12:11:19;17.27;;;11.73;;
21615;SDS011;10970;48.714;9.584;2023-02-14T12:13:52;16.60;;;11.25;;
21615;SDS011;10970;48.714;9.584;2023-02-14T12:16:27;18.70;;;11.80;;
21615;SDS011;10970;48.714;9.584;2023-02-14T12:19:02;16.27;;;11.07;;
21615;SDS011;10970;48.714;9.584;2023-02-14T12:24:08;16.70;;;11.57;;
21615;SDS011;10970;48.714;9.584;2023-02-14T12:29:32;16.10;;;11.50;;
21615;SDS011;10970;48.714;9.584;2023-02-14T12:32:27;25.58;;;11.80;;
21615;SDS011;10970;48.714;9.584;2023-02-14T12:35:16;15.90;;;11.60;;
21615;SDS011;10970;48.714;9.584;2023-02-14T13:13:29;14.23;;;10.20;;
21615;SDS011;10970;48.714;9.584;2023-02-14T13:21:03;13.95;;;10.48;;
21615;SDS011;10970;48.714;9.584;2023-02-14T13:23:34;13.38;;;10.75;;
21615;SDS011;10970;48.714;9.584;2023-02-14T13:29:04;16.85;;;11.00;;
21615;SDS011;10970;48.714;9.584;2023-02-14T13:31:35;17.05;;;11.40;;
21615;SDS011;10970;48.714;9.584;2023-02-14T13:34:14;13.82;;;11.18;;
21615;SDS011;10970;48.714;9.584;2023-02-14T13:36:44;20.70;;;11.48;;
21615;SDS011;10970;48.714;9.584;2023-02-14T13:39:11;15.23;;;11.27;;
21615;SDS011;10970;48.714;9.584;2023-02-14T13:42:01;14.63;;;11.43;;
21615;SDS011;10970;48.714;9.584;2023-02-14T13:47:03;18.75;;;12.23;;
21615;SDS011;10970;48.714;9.584;2023-02-14T13:49:30;15.18;;;12.25;;
21615;SDS011;10970;48.714;9.584;2023-02-14T13:52:02;14.20;;;11.13;;
21615;SDS011;10970;48.714;9.584;2023-02-14T13:54:40;13.20;;;11.17;;
21615;SDS011;10970;48.714;9.584;2023-02-14T13:57:26;17.07;;;11.67;;
21615;SDS011;10970;48.714;9.584;2023-02-14T14:21:32;13.57;;;10.90;;
21615;SDS011;10970;48.714;9.584;2023-02-14T14:26:38;13.40;;;10.30;;
21615;SDS011;10970;48.714;9.584;2023-02-14T14:29:15;12.27;;;11.07;;
21615;SDS011;10970;48.714;9.584;2023-02-14T14:31:53;16.15;;;11.10;;
21615;SDS011;10970;48.714;9.584;2023-02-14T14:34:20;11.80;;;10.47;;
21615;SDS011;10970;48.714;9.584;2023-02-14T14:36:49;12.03;;;10.43;;
21615;SDS011;10970;48.714;9.584;2023-02-14T14:39:26;14.33;;;9.33;;
21615;SDS011;10970;48.714;9.584;2023-02-14T14:41:54;16.40;;;11.50;;
21615;SDS011;10970;48.714;9.584;2023-02-14T14:44:28;18.03;;;11.87;;
21615;SDS011;10970;48.714;9.584;2023-02-14T14:46:57;15.00;;;10.80;;
21615;SDS011;10970;48.714;9.584;2023-02-14T14:49:24;20.20;;;10.50;;
21615;SDS011;10970;48.714;9.584;2023-02-14T14:51:50;15.73;;;11.30;;
21615;SDS011;10970;48.714;9.584;2023-02-14T14:54:19;12.20;;;9.70;;
21615;SDS011;10970;48.714;9.584;2023-02-14T14:56:50;18.13;;;11.00;;
21615;SDS011;10970;48.714;9.584;2023-02-14T15:01:49;13.10;;;9.90;;
21615;SDS011;10970;48.714;9.584;2023-02-14T15:04:18;17.57;;;11.43;;
21615;SDS011;10970;48.714;9.584;2023-02-14T15:06:44;13.03;;;11.03;;
21615;SDS011;10970;48.714;9.584;2023-02-14T15:09:15;10.80;;;9.67;;
21615;SDS011;10970;48.714;9.584;2023-02-14T15:11:44;12.30;;;9.00;;
21615;SDS011;10970;48.714;9.584;2023-02-14T15:14:31;15.57;;;10.30;;
21615;SDS011;10970;48.714;9.584;2023-02-14T15:17:03;13.00;;;10.77;;
21615;SDS011;10970;48.714;9.584;2023-02-14T15:22:01;11.23;;;10.03;;
21615;SDS011;10970;48.714;9.584;2023-02-14T15:24:28;13.47;;;10.10;;
21615;SDS011;10970;48.714;9.584;2023-02-14T15:26:57;13.70;;;11.27;;
21615;SDS011;10970;48.714;9.584;2023-02-14T15:29:25;15.80;;;10.73;;
21615;SDS011;10970;48.714;9.584;2023-02-14T15:31:52;14.83;;;10.43;;
21615;SDS011;10970;48.714;9.584;2023-02-14T15:34:22;12.03;;;10.20;;
21615;SDS011;10970;48.714;9.584;2023-02-14T15:36:53;14.60;;;10.43;;
21615;SDS011;10970;48.714;9.584;2023-02-14T15:42:26;12.87;;;9.97;;
21615;SDS011;10970;48.714;9.584;2023-02-14T15:47:47;12.97;;;10.33;;
21615;SDS011;10970;48.714;9.584;2023-02-14T15:50:16;17.43;;;11.23;;
21615;SDS011;10970;48.714;9.584;2023-02-14T15:52:44;13.60;;;11.00;;
21615;SDS011;10970;48.714;9.584;2023-02-14T15:55:10;15.63;;;10.60;;
21615;SDS011;10970;48.714;9.584;2023-02-14T15:57:40;15.80;;;10.60;;
21615;SDS011;10970;48.714;9.584;2023-02-14T16:00:19;19.03;;;12.00;;
21615;SDS011;10970;48.714;9.584;2023-02-14T16:02:48;18.00;;;12.87;;
21615;SDS011;10970;48.714;9.584;2023-02-14T16:05:19;15.50;;;11.90;;
21615;SDS011;10970;48.714;9.584;2023-02-14T16:10:40;14.83;;;12.90;;
21615;SDS011;10970;48.714;9.584;2023-02-14T16:13:16;18.10;;;13.50;;
21615;SDS011;10970;48.714;9.584;2023-02-14T16:26:44;18.65;;;13.40;;
21615;SDS011;10970;48.714;9.584;2023-02-14T16:29:11;18.55;;;12.77;;
21615;SDS011;10970;48.714;9.584;2023-02-14T16:34:19;20.08;;;13.38;;
21615;SDS011;10970;48.714;9.584;2023-02-14T16:36:45;16.52;;;13.43;;
21615;SDS011;10970;48.714;9.584;2023-02-14T16:39:14;22.53;;;14.10;;
21615;SDS011;10970;48.714;9.584;2023-02-14T16:41:42;20.13;;;13.35;;
21615;SDS011;10970;48.714;9.584;2023-02-14T16:44:13;23.90;;;16.40;;
21615;SDS011;10970;48.714;9.584;2023-02-14T16:46:40;29.65;;;22.23;;
21615;SDS011;10970;48.714;9.584;2023-02-14T16:49:06;20.67;;;16.42;;
21615;SDS011;10970;48.714;9.584;2023-02-14T16:51:33;22.70;;;17.07;;
21615;SDS011;10970;48.714;9.584;2023-02-14T16:54:02;26.70;;;17.45;;
21615;SDS011;10970;48.714;9.584;2023-02-14T16:56:40;23.35;;;17.17;;
21615;SDS011;10970;48.714;9.584;2023-02-14T16:59:10;25.13;;;16.45;;
21615;SDS011;10970;48.714;9.584;2023-02-14T17:01:36;17.40;;;14.00;;
21615;SDS011;10970;48.714;9.584;2023-02-14T17:04:02;23.37;;;15.80;;
21615;SDS011;10970;48.714;9.584;2023-02-14T17:06:28;27.17;;;15.83;;
21615;SDS011;10970;48.714;9.584;2023-02-14T17:08:56;25.67;;;15.73;;
21615;SDS011;10970;48.714;9.584;2023-02-14T17:11:24;22.80;;;16.30;;
21615;SDS011;10970;48.714;9.584;2023-02-14T17:13:50;25.23;;;15.95;;
21615;SDS011;10970;48.714;9.584;2023-02-14T17:16:18;21.45;;;16.27;;
21615;SDS011;10970;48.714;9.584;2023-02-14T17:18:45;23.35;;;15.45;;
21615;SDS011;10970;48.714;9.584;2023-02-14T17:21:13;21.52;;;15.57;;
21615;SDS011;10970;48.714;9.584;2023-02-14T17:23:40;23.15;;;14.93;;
21615;SDS011;10970;48.714;9.584;2023-02-14T17:26:06;27.23;;;16.63;;
21615;SDS011;10970;48.714;9.584;2023-02-14T17:28:31;27.80;;;18.57;;
21615;SDS011;10970;48.714;9.584;2023-02-14T17:30:57;25.10;;;17.00;;
21615;SDS011;10970;48.714;9.584;2023-02-14T17:33:23;21.70;;;15.80;;
21615;SDS011;10970;48.714;9.584;2023-02-14T17:35:50;24.00;;;16.77;;
21615;SDS011;10970;48.714;9.584;2023-02-14T17:38:16;28.77;;;17.83;;
21615;SDS011;10970;48.714;9.584;2023-02-14T17:40:42;19.95;;;14.60;;
21615;SDS011;10970;48.714;9.584;2023-02-14T17:43:08;30.53;;;18.00;;
21615;SDS011;10970;48.714;9.584;2023-02-14T17:45:34;24.17;;;16.27;;
21615;SDS011;10970;48.714;9.584;2023-02-14T17:48:00;22.33;;;15.60;;